首页
METAR-TAF:

METAR-TAF

机场 :

亚历山德里亚, 路易斯安那州, 美国

纬度: 31-20-05N, 经度: 092-33-31W, 海拔: 27米

当前天气观测

该预报发布于33分钟前的15:53 UTC
风速8节,风向东南
温度 15°C
湿度 94%
气压 1015 hPa
能見度: 8.0公里
阴天层高于500英尺

METAR: KAEX 171553Z 14008KT 5SM OVC005 15/14 A2998 RMK AO2 SLP155 T01500139

时间: 10:26 (16:26 UTC)

预报

该预报发布于1小时和56分钟前的14:30 UTC
预报有效从17日的 15点(UTC)到 18日的 12点(UTC)
风速7节,风向南转南东
能見度: 9.7公里
阴天层高于400英尺
轻雾
短暂存在
从 17日的 15点(UTC)到 17日的 17点(UTC)
能見度: 4.8公里
轻雾
从 17日的 1700点(UTC)
风速10节,风向南转南东
能見度: 10公里
阴天层高于800英尺
从 17日的 2000点(UTC)
风速6节,风向东北
能見度: 9.7公里
阴天层高于1800英尺
轻雾
从 18日的 0300点(UTC)
风速8节,风向南转南东
能見度: 10公里
阴天层高于1200英尺

TAF: KAEX 171430Z 1715/1812 15007KT 6SM BR OVC004 TEMPO 1715/1717 3SM BR FM171700 15010KT P6SM OVC008 FM172000 05006KT 6SM BR OVC018 FM180300 15008KT P6SM OVC012

超过4000个机场的气象观测和天气预报(METAR&TAF报告)。

可查询的气象台以黄色和红色小点在地图上表示。

将鼠标移到小点上方,可查看气象台名称。

然后点击查看天气观测和预报。

如需切换地图:点击带黑十字的绿色按钮放大地图;点击带横线的绿色按钮缩小地图;或者点击绿色箭头查看邻近地区的地图。


METAR-TAF: